Time;durP1;ratioP1;P1;durP2;ratioP2;P2;SDS_P1;SDS_P2;PMS_P1;PMS_P2;Temp;Humidity;BMP_temperature;BMP_pressure;BME280_temperature;BME280_humidity;BME280_pressure;Samples;Min_cycle;Max_cycle;Signal;HPM_P1;HPM_P2
2023/05/08 00:01:16;;;;;;;28.10;17.30;;;;;;;14.06;100.00;101634.84;5066623;28;20171;-72
2023/05/08 00:03:42;;;;;;;31.80;18.75;;;;;;;14.03;100.00;101641.25;5065257;28;20499;-73
2023/05/08 00:06:09;;;;;;;28.45;17.77;;;;;;;14.00;100.00;101639.28;5065728;28;20053;-72
2023/05/08 00:08:36;;;;;;;26.88;17.38;;;;;;;13.94;100.00;101638.19;5066084;28;20044;-71
2023/05/08 00:11:02;;;;;;;27.23;17.15;;;;;;;13.95;100.00;101648.16;5062315;28;20131;-71
2023/05/08 00:13:29;;;;;;;28.75;18.13;;;;;;;13.91;100.00;101645.41;5063962;28;20467;-73
2023/05/08 00:15:56;;;;;;;31.02;18.20;;;;;;;13.86;100.00;101648.66;5064306;28;20143;-71
2023/05/08 00:18:22;;;;;;;26.90;16.70;;;;;;;13.85;100.00;101649.09;5064650;28;20056;-71
2023/05/08 00:20:49;;;;;;;27.70;18.25;;;;;;;13.78;100.00;101633.19;5063433;28;20534;-70
2023/05/08 00:23:15;;;;;;;27.75;18.60;;;;;;;13.78;100.00;101640.78;5073322;28;20063;-71
2023/05/08 00:25:42;;;;;;;29.73;17.90;;;;;;;13.74;100.00;101646.41;5066207;28;20048;-70
2023/05/08 00:28:09;;;;;;;29.40;18.50;;;;;;;13.73;100.00;101641.22;5072454;28;20558;-71
2023/05/08 00:30:35;;;;;;;27.63;17.40;;;;;;;13.69;100.00;101641.28;5065530;28;20058;-71
2023/05/08 00:33:02;;;;;;;29.52;18.42;;;;;;;13.68;100.00;101638.91;5064162;28;20717;-71
2023/05/08 00:35:28;;;;;;;27.95;17.75;;;;;;;13.64;100.00;101636.13;5063310;28;20147;-71
2023/05/08 00:37:55;;;;;;;30.05;18.13;;;;;;;13.59;100.00;101645.00;5076062;28;20056;-71
2023/05/08 00:40:21;;;;;;;27.15;17.15;;;;;;;13.56;100.00;101645.00;5073129;28;20442;-72
2023/05/08 00:42:48;;;;;;;29.52;17.92;;;;;;;13.55;100.00;101641.44;5065123;28;20056;-70
2023/05/08 00:45:14;;;;;;;30.13;18.50;;;;;;;13.55;100.00;101644.25;5064896;28;20052;-71
2023/05/08 00:47:41;;;;;;;27.13;17.80;;;;;;;13.49;100.00;101645.09;5075248;28;20048;-72
2023/05/08 00:50:09;;;;;;;28.60;17.50;;;;;;;13.50;100.00;101644.69;5065372;28;20056;-72
2023/05/08 00:52:36;;;;;;;27.67;17.73;;;;;;;13.48;100.00;101637.94;5055789;28;20548;-72
2023/05/08 00:55:04;;;;;;;27.88;17.95;;;;;;;13.46;100.00;101649.53;5058817;28;20044;-72
2023/05/08 00:57:34;;;;;;;27.73;18.40;;;;;;;13.40;100.00;101637.19;5065564;28;20056;-74
2023/05/08 01:00:03;;;;;;;30.45;18.83;;;;;;;13.40;100.00;101642.00;5057729;28;20036;-71
2023/05/08 01:02:30;;;;;;;26.48;17.48;;;;;;;13.37;100.00;101637.22;5056119;28;20062;-72
2023/05/08 01:04:57;;;;;;;26.73;17.60;;;;;;;13.33;100.00;101633.69;5062603;28;20048;-72
2023/05/08 01:07:24;;;;;;;29.45;19.02;;;;;;;13.32;100.00;101632.88;5069287;28;20056;-71
2023/05/08 01:09:52;;;;;;;27.88;18.50;;;;;;;13.33;100.00;101642.06;5068166;28;20055;-72
2023/05/08 01:12:24;;;;;;;27.77;19.02;;;;;;;13.29;100.00;101636.50;5072403;28;20059;-70
2023/05/08 01:15:09;;;;;;;26.15;17.20;;;;;;;13.30;100.00;101640.88;5071294;28;20055;-71
2023/05/08 01:17:39;;;;;;;26.53;17.33;;;;;;;13.31;100.00;101641.66;5066770;28;20498;-72
2023/05/08 01:20:47;;;;;;;27.25;17.45;;;;;;;13.32;100.00;101646.03;5068619;28;20131;-74
2023/05/08 01:23:51;;;;;;;26.13;16.90;;;;;;;13.28;100.00;101650.88;5045954;28;20593;-73
2023/05/08 01:26:54;;;;;;;27.70;17.45;;;;;;;13.26;100.00;101642.91;5075834;28;20048;-72
2023/05/08 01:29:50;;;;;;;29.58;17.90;;;;;;;13.24;100.00;101641.75;5070804;28;20490;-72
2023/05/08 01:32:51;;;;;;;30.25;18.60;;;;;;;13.17;100.00;101645.41;5067195;28;20048;-72
2023/05/08 01:35:28;;;;;;;36.53;18.58;;;;;;;13.14;100.00;101648.22;5057956;28;20118;-71
2023/05/08 01:38:11;;;;;;;26.48;16.52;;;;;;;13.12;100.00;101648.63;5067634;28;20159;-73
2023/05/08 01:41:05;;;;;;;30.65;18.70;;;;;;;13.10;100.00;101644.66;5068759;28;20507;-72
2023/05/08 01:43:35;;;;;;;27.58;18.35;;;;;;;13.09;100.00;101651.44;5063677;28;20049;-72
2023/05/08 01:46:08;;;;;;;26.33;17.85;;;;;;;13.07;100.00;101645.50;5066951;28;20055;-72
2023/05/08 01:48:43;;;;;;;28.65;19.13;;;;;;;13.04;100.00;101635.13;5067217;28;20419;-71
2023/05/08 01:51:19;;;;;;;26.23;17.73;;;;;;;12.99;100.00;101641.19;5075544;28;20059;-71
2023/05/08 01:53:59;;;;;;;28.52;18.15;;;;;;;12.95;100.00;101643.19;5077642;28;20052;-72
2023/05/08 01:56:28;;;;;;;27.15;17.38;;;;;;;12.93;100.00;101651.97;5066036;28;20044;-73
2023/05/08 01:58:57;;;;;;;30.38;18.65;;;;;;;12.90;100.00;101652.81;5073002;28;20040;-72
2023/05/08 02:01:28;;;;;;;31.05;18.52;;;;;;;12.88;100.00;101651.63;5068234;28;20131;-71
2023/05/08 02:03:55;;;;;;;27.98;17.92;;;;;;;12.83;100.00;101652.06;5065181;28;20041;-72
2023/05/08 02:06:23;;;;;;;28.17;18.17;;;;;;;12.82;100.00;101656.06;5066823;28;20052;-72
2023/05/08 02:08:52;;;;;;;27.67;18.00;;;;;;;12.79;100.00;101654.88;5064465;28;20051;-71
2023/05/08 02:11:20;;;;;;;30.80;18.35;;;;;;;12.78;100.00;101656.09;5066909;28;20048;-72
2023/05/08 02:13:48;;;;;;;28.40;18.10;;;;;;;12.76;100.00;101657.72;5068868;28;20075;-72
2023/05/08 02:16:17;;;;;;;28.92;16.52;;;;;;;12.74;100.00;101663.69;5066830;28;20152;-73
2023/05/08 02:18:49;;;;;;;29.25;18.77;;;;;;;12.60;100.00;101647.06;5066359;28;20044;-74
2023/05/08 02:21:18;;;;;;;28.63;17.98;;;;;;;12.70;100.00;101667.72;5068866;28;20044;-73
2023/05/08 02:23:46;;;;;;;28.67;17.58;;;;;;;12.65;100.00;101665.38;5069042;28;20051;-73
2023/05/08 02:26:15;;;;;;;28.10;18.40;;;;;;;12.63;100.00;101665.78;5067699;28;20421;-73
2023/05/08 02:28:43;;;;;;;29.33;18.38;;;;;;;12.57;100.00;101661.81;5068330;28;20071;-73
2023/05/08 02:31:11;;;;;;;27.75;17.17;;;;;;;12.56;100.00;101659.44;5067840;28;20045;-73
2023/05/08 02:33:40;;;;;;;27.63;18.55;;;;;;;12.52;100.00;101665.84;5076188;28;20052;-72
2023/05/08 02:36:09;;;;;;;28.45;16.98;;;;;;;12.57;100.00;101672.19;5066934;28;20052;-71
2023/05/08 02:38:38;;;;;;;28.70;18.80;;;;;;;12.57;100.00;101672.19;5066574;28;20063;-71
2023/05/08 02:41:06;;;;;;;29.40;18.83;;;;;;;12.51;100.00;101671.81;5067949;28;20056;-72
2023/05/08 02:43:34;;;;;;;29.92;19.80;;;;;;;12.43;100.00;101668.28;5068585;28;20056;-73
2023/05/08 02:46:11;;;;;;;28.20;18.45;;;;;;;12.46;100.00;101683.41;5066784;28;20056;-72
2023/05/08 02:49:01;;;;;;;28.15;18.42;;;;;;;12.43;100.00;101676.63;5065800;28;20053;-72
2023/05/08 02:51:45;;;;;;;28.60;17.60;;;;;;;12.38;100.00;101676.28;5074279;28;20063;-72
2023/05/08 02:54:55;;;;;;;28.02;18.50;;;;;;;12.34;100.00;101681.06;5058324;28;20127;-72
2023/05/08 02:57:49;;;;;;;27.90;18.02;;;;;;;12.31;100.00;101679.06;5063780;28;20048;-72
2023/05/08 03:00:25;;;;;;;30.00;18.30;;;;;;;12.25;100.00;101673.13;5062843;28;20521;-73
2023/05/08 03:02:58;;;;;;;31.50;18.02;;;;;;;12.13;100.00;101665.22;5066681;28;20059;-72
2023/05/08 03:05:30;;;;;;;30.77;18.10;;;;;;;12.11;100.00;101670.41;5066370;28;20044;-71
2023/05/08 03:08:02;;;;;;;33.22;17.42;;;;;;;12.09;100.00;101663.66;5062994;28;20049;-72
2023/05/08 03:10:33;;;;;;;33.35;19.10;;;;;;;12.08;100.00;101674.00;5067024;28;20040;-72
2023/05/08 03:13:03;;;;;;;30.15;18.35;;;;;;;12.10;100.00;101673.59;5066174;28;20506;-72
2023/05/08 03:15:42;;;;;;;29.70;18.40;;;;;;;12.06;100.00;101665.25;5068281;28;20088;-71
2023/05/08 03:18:13;;;;;;;30.33;18.30;;;;;;;12.05;100.00;101660.88;5060073;28;20242;-70
2023/05/08 03:20:45;;;;;;;30.23;18.02;;;;;;;12.01;100.00;101662.09;5067879;28;20048;-71
2023/05/08 03:23:14;;;;;;;31.40;18.98;;;;;;;12.00;100.00;101666.09;5058666;28;20143;-71
2023/05/08 03:25:42;;;;;;;29.30;19.50;;;;;;;11.98;100.00;101668.47;5068914;28;20056;-72
2023/05/08 03:28:10;;;;;;;31.52;18.38;;;;;;;11.94;100.00;101673.25;5074198;28;20055;-72
2023/05/08 03:30:39;;;;;;;28.38;17.77;;;;;;;11.96;100.00;101673.66;5067186;28;20055;-71
2023/05/08 03:33:07;;;;;;;27.77;17.65;;;;;;;11.96;100.00;101668.88;5067510;28;20048;-72
2023/05/08 03:35:38;;;;;;;28.25;17.58;;;;;;;11.94;100.00;101665.72;5073383;28;20058;-72
2023/05/08 03:38:05;;;;;;;27.05;17.65;;;;;;;11.93;100.00;101664.13;5072646;28;20192;-72
2023/05/08 03:40:37;;;;;;;28.95;18.48;;;;;;;11.89;100.00;101663.31;5066549;28;20051;-71
2023/05/08 03:43:07;;;;;;;31.55;18.00;;;;;;;11.87;100.00;101653.78;5067318;28;20045;-71
2023/05/08 03:45:36;;;;;;;30.67;18.02;;;;;;;11.88;100.00;101658.16;5067738;28;20056;-72
2023/05/08 03:48:05;;;;;;;28.10;18.33;;;;;;;11.84;100.00;101657.38;5067198;28;20040;-72
2023/05/08 03:50:34;;;;;;;29.60;17.77;;;;;;;11.78;100.00;101662.56;5065095;28;20544;-71
2023/05/08 03:53:01;;;;;;;28.83;19.05;;;;;;;11.77;100.00;101658.22;5060521;28;20049;-72
2023/05/08 03:55:29;;;;;;;29.50;17.92;;;;;;;11.76;100.00;101656.63;5065672;28;20062;-71
2023/05/08 03:58:02;;;;;;;33.42;19.60;;;;;;;11.77;100.00;101654.63;5067258;28;20050;-71
2023/05/08 04:00:36;;;;;;;28.00;18.05;;;;;;;11.74;100.00;101661.78;5067179;28;20048;-72
2023/05/08 04:03:18;;;;;;;29.55;19.38;;;;;;;11.77;100.00;101662.97;5056991;28;20048;-72
2023/05/08 04:06:09;;;;;;;30.95;18.17;;;;;;;11.77;100.00;101671.34;5063678;28;20052;-72
2023/05/08 04:08:47;;;;;;;26.75;18.02;;;;;;;11.74;100.00;101670.16;5075488;28;20058;-72
2023/05/08 04:11:41;;;;;;;32.60;18.27;;;;;;;11.75;100.00;101665.38;5066303;28;20045;-71
2023/05/08 04:14:15;;;;;;;32.90;19.33;;;;;;;11.68;100.00;101671.75;5057478;28;20053;-71
2023/05/08 04:16:48;;;;;;;31.63;18.63;;;;;;;11.71;100.00;101670.16;5067321;28;20091;-72
2023/05/08 04:19:21;;;;;;;30.83;19.02;;;;;;;11.67;100.00;101672.97;5066930;28;20453;-72
2023/05/08 04:21:49;;;;;;;29.88;18.40;;;;;;;11.70;100.00;101685.28;5067733;28;20155;-71
2023/05/08 04:24:18;;;;;;;28.25;17.88;;;;;;;11.65;100.00;101675.34;5066470;28;20101;-72
2023/05/08 04:26:45;;;;;;;29.15;17.75;;;;;;;11.64;100.00;101679.34;5067370;28;20063;-71
2023/05/08 04:29:12;;;;;;;28.20;18.63;;;;;;;11.60;100.00;101681.34;5062640;28;20061;-72
2023/05/08 04:31:40;;;;;;;30.42;18.15;;;;;;;11.59;100.00;101685.31;5066773;28;20048;-70
2023/05/08 04:34:08;;;;;;;30.90;19.67;;;;;;;11.60;100.00;101692.47;5067017;28;20052;-72
2023/05/08 04:36:34;;;;;;;33.97;18.58;;;;;;;11.60;100.00;101686.09;5066719;28;20045;-71
2023/05/08 04:39:01;;;;;;;31.42;18.90;;;;;;;11.58;100.00;101689.28;5068461;28;20052;-71
2023/05/08 04:41:27;;;;;;;29.05;18.40;;;;;;;11.57;100.00;101693.28;5072416;28;20573;-72
2023/05/08 04:43:54;;;;;;;31.08;18.80;;;;;;;11.64;100.00;101698.03;5068498;28;20140;-72
2023/05/08 04:46:20;;;;;;;30.77;18.77;;;;;;;11.66;100.00;101693.66;5068878;28;20048;-71
2023/05/08 04:48:47;;;;;;;31.83;19.40;;;;;;;11.68;100.00;101691.25;5069935;28;20070;-72
2023/05/08 04:51:13;;;;;;;34.17;19.10;;;;;;;11.72;100.00;101689.25;5066820;28;20060;-70
2023/05/08 04:53:40;;;;;;;31.05;20.05;;;;;;;11.79;100.00;101691.25;5070959;28;20049;-72
2023/05/08 04:56:07;;;;;;;34.58;19.90;;;;;;;11.80;100.00;101693.63;5069391;28;20059;-72
2023/05/08 04:58:33;;;;;;;34.33;19.60;;;;;;;11.88;100.00;101700.75;5069376;28;20167;-72
2023/05/08 05:01:04;;;;;;;30.77;19.05;;;;;;;11.96;100.00;101705.09;5068349;28;20064;-72
2023/05/08 05:03:30;;;;;;;29.60;19.10;;;;;;;12.07;100.00;101705.06;5068414;28;20059;-72
2023/05/08 05:05:58;;;;;;;30.70;19.13;;;;;;;12.12;100.00;101701.88;5061017;28;20061;-72
2023/05/08 05:08:25;;;;;;;30.83;19.58;;;;;;;12.16;100.00;101711.03;5068250;28;20075;-72
2023/05/08 05:10:52;;;;;;;29.38;19.33;;;;;;;12.21;100.00;101705.00;5067274;28;20045;-72
2023/05/08 05:13:19;;;;;;;29.40;18.00;;;;;;;12.26;100.00;101708.16;5070055;28;20048;-73
2023/05/08 05:15:45;;;;;;;30.30;18.13;;;;;;;12.31;100.00;101709.75;5068614;28;20055;-73
2023/05/08 05:18:12;;;;;;;28.55;18.70;;;;;;;12.33;100.00;101704.56;5067865;28;20084;-71
2023/05/08 05:20:39;;;;;;;31.02;18.58;;;;;;;12.42;100.00;101716.09;5067645;28;20048;-72
2023/05/08 05:23:05;;;;;;;29.65;18.85;;;;;;;12.48;100.00;101715.28;5065617;28;20051;-72
2023/05/08 05:25:31;;;;;;;31.63;18.73;;;;;;;12.57;100.00;101712.03;5064606;28;20092;-72
2023/05/08 05:27:58;;;;;;;28.10;19.55;;;;;;;12.63;100.00;101715.19;5067857;28;20075;-72
2023/05/08 05:30:25;;;;;;;29.15;18.70;;;;;;;12.70;100.00;101715.16;5069362;28;20052;-72
2023/05/08 05:32:51;;;;;;;28.50;19.23;;;;;;;12.77;100.00;101720.69;5069494;28;20115;-72
2023/05/08 05:35:19;;;;;;;30.75;20.58;;;;;;;12.82;100.00;101718.25;5066712;28;20475;-72
2023/05/08 05:37:45;;;;;;;28.02;18.02;;;;;;;12.88;100.00;101725.00;5059026;28;20044;-72
2023/05/08 05:40:12;;;;;;;30.52;19.15;;;;;;;12.91;100.00;101729.75;5069035;28;20503;-72
2023/05/08 05:42:38;;;;;;;30.27;18.38;;;;;;;12.96;100.00;101722.94;5069219;28;20110;-72
2023/05/08 05:45:05;;;;;;;30.85;19.85;;;;;;;12.99;100.00;101710.97;5066755;28;20055;-74
2023/05/08 05:47:32;;;;;;;29.00;18.52;;;;;;;13.03;100.00;101717.31;5067863;28;20060;-71
2023/05/08 05:49:58;;;;;;;31.05;18.50;;;;;;;13.03;100.00;101712.50;5066641;28;20078;-72
2023/05/08 05:52:25;;;;;;;27.75;18.05;;;;;;;13.07;100.00;101718.88;5069901;28;20528;-72
2023/05/08 05:54:55;;;;;;;28.70;17.58;;;;;;;13.12;100.00;101720.41;5069485;28;20059;-73
2023/05/08 05:57:21;;;;;;;35.38;20.13;;;;;;;13.17;100.00;101720.00;5068955;28;20132;-72
2023/05/08 05:59:48;;;;;;;33.42;19.58;;;;;;;13.23;100.00;101721.91;5066827;28;20836;-72
2023/05/08 06:02:17;;;;;;;32.70;20.02;;;;;;;13.28;100.00;101724.28;5066629;28;20048;-73
2023/05/08 06:04:44;;;;;;;30.17;18.90;;;;;;;13.36;100.00;101728.59;5067206;28;20052;-71
2023/05/08 06:07:10;;;;;;;29.48;18.90;;;;;;;13.39;100.00;101729.75;5062738;28;20056;-73
2023/05/08 06:09:37;;;;;;;30.05;19.17;;;;;;;13.43;100.00;101730.59;5067508;28;20048;-73
2023/05/08 06:12:04;;;;;;;35.33;21.15;;;;;;;13.47;100.00;101734.13;5067382;28;20135;-72
2023/05/08 06:14:30;;;;;;;29.75;19.33;;;;;;;13.50;100.00;101730.50;5066660;28;20670;-73
2023/05/08 06:16:57;;;;;;;30.73;20.45;;;;;;;13.53;100.00;101724.88;5062563;28;20728;-72
2023/05/08 06:19:23;;;;;;;31.38;20.08;;;;;;;13.57;100.00;101730.44;5065940;28;20387;-73
2023/05/08 06:21:53;;;;;;;31.70;21.05;;;;;;;13.64;100.00;101733.16;5068340;28;20119;-76
2023/05/08 06:24:19;;;;;;;33.60;20.13;;;;;;;13.68;100.00;101722.75;5068263;28;20055;-74
2023/05/08 06:26:46;;;;;;;33.40;20.30;;;;;;;13.73;100.00;101723.06;5068225;28;20063;-74
2023/05/08 06:29:13;;;;;;;30.48;18.90;;;;;;;13.79;100.00;101729.00;5065235;28;20095;-74
2023/05/08 06:31:41;;;;;;;29.48;19.88;;;;;;;13.87;100.00;101730.53;5062475;28;20136;-75
2023/05/08 06:34:08;;;;;;;32.00;20.60;;;;;;;13.91;100.00;101725.69;5069639;28;20044;-74
2023/05/08 06:36:35;;;;;;;32.28;21.42;;;;;;;14.01;100.00;101722.75;5069742;28;20045;-73
2023/05/08 06:39:05;;;;;;;30.58;18.98;;;;;;;14.07;100.00;101726.69;5072293;28;20052;-75
2023/05/08 06:41:31;;;;;;;29.88;20.08;;;;;;;14.15;100.00;101717.00;5063423;28;20450;-73
2023/05/08 06:43:58;;;;;;;32.97;20.35;;;;;;;14.26;100.00;101716.88;5058551;28;20530;-75
2023/05/08 06:46:24;;;;;;;30.42;19.77;;;;;;;14.36;100.00;101713.16;5071827;28;20052;-73
2023/05/08 06:48:51;;;;;;;32.25;19.67;;;;;;;14.49;100.00;101717.00;5068069;28;20052;-75
2023/05/08 06:51:18;;;;;;;32.33;19.63;;;;;;;14.61;100.00;101722.03;5066978;28;20509;-73
2023/05/08 06:53:45;;;;;;;30.15;19.75;;;;;;;14.70;100.00;101714.72;5067488;28;20127;-72
2023/05/08 06:56:11;;;;;;;32.33;18.95;;;;;;;14.83;100.00;101720.50;5059762;28;20044;-73
2023/05/08 06:58:38;;;;;;;28.48;17.80;;;;;;;15.01;100.00;101729.44;5067963;28;20052;-73
2023/05/08 07:01:04;;;;;;;27.95;17.77;;;;;;;15.04;100.00;101720.19;5067293;28;20052;-75
2023/05/08 07:03:31;;;;;;;30.52;18.95;;;;;;;15.08;100.00;101725.75;5067437;28;20051;-73
2023/05/08 07:05:58;;;;;;;29.05;17.77;;;;;;;15.11;100.00;101727.66;5060267;28;20053;-73
2023/05/08 07:08:24;;;;;;;31.55;17.15;;;;;;;15.19;100.00;101729.94;5067920;28;20052;-73
2023/05/08 07:10:52;;;;;;;25.02;16.52;;;;;;;15.31;100.00;101720.13;5066183;28;20503;-74
2023/05/08 07:13:20;;;;;;;26.83;17.05;;;;;;;15.43;100.00;101720.38;5064525;28;20415;-74
2023/05/08 07:15:50;;;;;;;26.02;16.55;;;;;;;15.55;100.00;101730.16;5062603;28;20053;-76
2023/05/08 07:18:16;;;;;;;25.52;16.00;;;;;;;15.51;100.00;101724.63;5067476;28;20498;-75
2023/05/08 07:20:43;;;;;;;26.98;16.23;;;;;;;15.61;100.00;101729.25;5066791;28;20048;-75
2023/05/08 07:23:09;;;;;;;27.02;15.80;;;;;;;15.66;100.00;101730.78;5067829;28;20053;-74
2023/05/08 07:25:36;;;;;;;23.88;15.27;;;;;;;15.80;100.00;101725.66;5067469;28;20055;-74
2023/05/08 07:28:03;;;;;;;23.65;13.77;;;;;;;15.93;100.00;101729.44;5062511;28;20045;-75
2023/05/08 07:30:30;;;;;;;24.08;13.95;;;;;;;15.98;100.00;101736.56;5060678;28;20055;-75
2023/05/08 07:32:56;;;;;;;23.77;13.85;;;;;;;16.00;100.00;101743.31;5067150;28;20052;-75
2023/05/08 07:35:23;;;;;;;24.30;14.10;;;;;;;16.17;100.00;101735.78;5065575;28;20071;-75
2023/05/08 07:37:50;;;;;;;24.20;13.57;;;;;;;16.28;100.00;101737.19;5067226;28;20052;-74
2023/05/08 07:40:16;;;;;;;20.45;12.90;;;;;;;16.37;100.00;101734.56;5066076;28;20051;-74
2023/05/08 07:42:44;;;;;;;23.45;12.98;;;;;;;16.43;100.00;101734.84;5065681;28;20056;-75
2023/05/08 07:45:12;;;;;;;26.40;13.48;;;;;;;16.56;100.00;101741.38;5064542;28;20078;-72
2023/05/08 07:47:48;;;;;;;22.58;12.55;;;;;;;16.66;100.00;101748.78;5065429;28;20166;-75
2023/05/08 07:50:14;;;;;;;23.25;11.90;;;;;;;16.67;100.00;101748.34;5067453;28;20049;-72
2023/05/08 07:52:44;;;;;;;21.48;11.95;;;;;;;16.78;100.00;101751.69;5067726;28;20049;-74
2023/05/08 07:55:38;;;;;;;22.48;12.15;;;;;;;16.75;100.00;101749.75;5066215;28;20045;-75
2023/05/08 07:58:05;;;;;;;19.80;8.05;;;;;;;16.59;100.00;101758.16;5052596;28;20045;-74
2023/05/08 08:00:32;;;;;;;24.65;12.32;;;;;;;16.52;100.00;101754.72;5064992;28;20052;-73
2023/05/08 08:02:58;;;;;;;15.57;7.13;;;;;;;16.53;100.00;101761.91;5071787;28;20045;-74
2023/05/08 08:05:25;;;;;;;21.98;11.43;;;;;;;16.50;100.00;101751.53;5066517;28;20094;-75
2023/05/08 08:07:51;;;;;;;20.90;12.15;;;;;;;16.60;100.00;101759.75;5074644;28;20483;-77
2023/05/08 08:10:18;;;;;;;22.85;11.40;;;;;;;16.69;100.00;101748.72;5066332;28;20048;-77
2023/05/08 08:12:44;;;;;;;21.23;12.57;;;;;;;16.70;100.00;101750.28;5064023;28;20507;-76
2023/05/08 08:15:11;;;;;;;24.85;10.98;;;;;;;16.58;100.00;101750.94;5066710;28;20044;-76
2023/05/08 08:17:38;;;;;;;18.67;9.80;;;;;;;16.51;100.00;101753.91;5066838;28;20513;-78
2023/05/08 08:20:05;;;;;;;21.17;12.45;;;;;;;16.71;100.00;101749.06;5065057;28;20088;-77
2023/05/08 08:22:32;;;;;;;19.67;11.73;;;;;;;16.85;100.00;101750.78;5074753;28;20512;-73
2023/05/08 08:24:58;;;;;;;19.05;11.20;;;;;;;16.90;100.00;101745.41;5065383;28;20460;-78
2023/05/08 08:27:25;;;;;;;22.50;12.60;;;;;;;17.03;100.00;101739.91;5059197;28;20119;-75
2023/05/08 08:29:51;;;;;;;22.45;12.27;;;;;;;17.13;100.00;101745.31;5053672;28;20060;-73
2023/05/08 08:32:37;;;;;;;20.35;10.07;;;;;;;17.22;100.00;101748.28;5060762;28;20041;-75
2023/05/08 08:35:04;;;;;;;21.60;8.48;;;;;;;16.98;100.00;101749.63;5065936;28;20087;-75
2023/05/08 08:37:31;;;;;;;17.75;8.80;;;;;;;16.97;100.00;101748.06;5065442;28;20056;-77
2023/05/08 08:39:58;;;;;;;18.13;8.02;;;;;;;16.92;100.00;101747.78;5056171;28;20044;-77
2023/05/08 08:42:25;;;;;;;14.70;6.93;;;;;;;16.88;100.00;101747.88;5066481;28;20059;-76
2023/05/08 08:44:51;;;;;;;1.90;1.13;;;;;;;16.95;100.00;101746.94;5065894;28;20059;-75
2023/05/08 08:47:21;;;;;;;14.93;7.03;;;;;;;17.16;100.00;101741.63;5064986;28;20052;-75
2023/05/08 08:49:49;;;;;;;16.80;6.07;;;;;;;17.15;100.00;101734.41;5063500;28;20056;-78
2023/05/08 08:52:30;;;;;;;17.92;6.43;;;;;;;17.19;100.00;101742.75;5060578;28;20582;-75
2023/05/08 08:55:01;;;;;;;12.90;5.53;;;;;;;17.23;100.00;101746.28;5064083;28;20112;-76
2023/05/08 08:57:32;;;;;;;12.23;5.78;;;;;;;17.38;100.00;101748.28;5065092;28;20491;-77
2023/05/08 09:00:04;;;;;;;10.13;5.35;;;;;;;17.40;100.00;101750.66;5062720;28;20052;-77
2023/05/08 09:02:30;;;;;;;12.10;4.70;;;;;;;17.33;100.00;101745.22;5059360;28;20128;-73
2023/05/08 09:04:58;;;;;;;10.35;5.22;;;;;;;17.59;100.00;101746.97;5056555;28;20131;-74
2023/05/08 09:07:25;;;;;;;9.23;4.72;;;;;;;17.64;100.00;101737.97;5057020;28;20056;-75
2023/05/08 09:09:53;;;;;;;9.30;4.65;;;;;;;17.83;100.00;101744.72;5053408;28;21917;-75
2023/05/08 09:12:19;;;;;;;9.45;4.05;;;;;;;17.79;100.00;101735.59;5054022;28;20045;-76
2023/05/08 09:14:46;;;;;;;10.43;4.57;;;;;;;17.83;100.00;101748.31;5062508;28;20130;-73
2023/05/08 09:17:13;;;;;;;8.32;4.38;;;;;;;17.92;100.00;101744.88;5051362;28;20469;-74
2023/05/08 09:19:40;;;;;;;9.57;4.15;;;;;;;17.86;100.00;101750.25;5053843;28;20073;-78
2023/05/08 09:22:08;;;;;;;9.40;3.95;;;;;;;17.83;100.00;101748.31;5055171;28;20055;-75
2023/05/08 09:24:57;;;;;;;7.30;3.65;;;;;;;17.71;100.00;101742.63;5065743;28;20066;-76
2023/05/08 09:27:26;;;;;;;10.43;4.53;;;;;;;17.70;100.00;101749.47;5066856;28;20056;-77
2023/05/08 09:30:13;;;;;;;6.57;3.95;;;;;;;17.71;100.00;101746.22;5069666;28;20527;-78
2023/05/08 09:32:42;;;;;;;8.02;3.80;;;;;;;17.85;100.00;101754.28;5069821;28;20052;-78
2023/05/08 09:35:09;;;;;;;9.30;3.10;;;;;;;17.75;100.00;101751.78;5069238;28;20056;-80
2023/05/08 09:37:38;;;;;;;7.03;3.03;;;;;;;17.67;100.00;101751.16;5068980;28;20052;-73
2023/05/08 09:40:16;;;;;;;6.93;3.63;;;;;;;17.72;100.00;101755.47;5068748;28;20048;-71
2023/05/08 09:42:43;;;;;;;9.57;3.67;;;;;;;17.70;100.00;101746.66;5068301;28;20059;-74
2023/05/08 09:45:10;;;;;;;7.90;3.88;;;;;;;17.71;100.00;101756.69;5069015;28;20040;-75
2023/05/08 09:47:38;;;;;;;10.05;4.00;;;;;;;17.75;100.00;101754.59;5066001;28;20152;-75
2023/05/08 09:50:08;;;;;;;8.57;3.80;;;;;;;17.75;100.00;101754.59;5069072;28;20052;-75
2023/05/08 09:52:36;;;;;;;7.90;4.28;;;;;;;17.75;100.00;101757.41;5063303;28;20137;-74
2023/05/08 09:55:02;;;;;;;7.75;3.67;;;;;;;17.66;100.00;101762.84;5068891;28;20071;-75
2023/05/08 09:57:52;;;;;;;12.13;4.75;;;;;;;17.71;100.00;101762.31;5069512;28;20049;-72
2023/05/08 10:00:19;;;;;;;8.15;4.25;;;;;;;17.72;100.00;101758.28;5062563;28;20135;-74
2023/05/08 10:03:05;;;;;;;9.50;4.00;;;;;;;17.69;100.00;101764.78;5068012;28;20040;-73
2023/05/08 10:05:34;;;;;;;6.55;3.38;;;;;;;17.64;100.00;101762.50;5068055;28;20048;-75
2023/05/08 10:08:25;;;;;;;10.63;4.40;;;;;;;17.72;100.00;101747.03;5058621;28;20048;-74
2023/05/08 10:10:52;;;;;;;13.32;6.03;;;;;;;17.87;100.00;101742.59;5078679;28;20049;-75
2023/05/08 10:13:18;;;;;;;9.35;4.93;;;;;;;17.95;100.00;101749.66;5066164;28;20056;-75
2023/05/08 10:15:53;;;;;;;10.13;4.57;;;;;;;17.94;100.00;101759.31;5067495;28;20106;-75
2023/05/08 10:18:23;;;;;;;11.43;4.10;;;;;;;17.90;100.00;101747.34;5062554;28;20088;-74
2023/05/08 10:20:52;;;;;;;9.07;4.78;;;;;;;18.03;100.00;101756.66;5066304;28;20048;-77
2023/05/08 10:23:19;;;;;;;9.43;4.70;;;;;;;18.04;100.00;101747.78;5068564;28;20053;-76
2023/05/08 10:25:47;;;;;;;12.45;5.40;;;;;;;18.26;100.00;101742.34;5064820;28;20426;-74
2023/05/08 10:28:24;;;;;;;13.05;5.03;;;;;;;18.37;100.00;101748.44;5065228;28;20054;-73
2023/05/08 10:30:55;;;;;;;10.40;5.35;;;;;;;18.53;100.00;101745.56;5066716;28;20427;-74
2023/05/08 10:33:28;;;;;;;11.43;5.15;;;;;;;18.69;100.00;101751.88;5064607;28;20052;-73
2023/05/08 10:35:57;;;;;;;10.45;5.13;;;;;;;18.85;100.00;101745.38;5066796;28;20045;-72
2023/05/08 10:38:24;;;;;;;9.88;5.55;;;;;;;18.98;100.00;101749.78;5065854;28;20056;-77
2023/05/08 10:40:57;;;;;;;9.45;4.40;;;;;;;18.94;100.00;101748.31;5064839;28;20510;-76
2023/05/08 10:43:24;;;;;;;9.55;4.70;;;;;;;18.95;100.00;101744.25;5067200;28;20113;-75
2023/05/08 10:45:54;;;;;;;10.15;4.95;;;;;;;19.05;100.00;101740.31;5065343;28;20048;-75
2023/05/08 10:48:46;;;;;;;11.43;5.22;;;;;;;19.01;100.00;101737.59;5066548;28;20184;-75
2023/05/08 10:51:26;;;;;;;10.05;5.50;;;;;;;19.04;100.00;101733.09;5062029;28;20521;-76
2023/05/08 10:53:58;;;;;;;11.57;5.60;;;;;;;19.13;100.00;101728.34;5065161;28;20056;-75
2023/05/08 10:56:28;;;;;;;13.32;5.75;;;;;;;19.22;100.00;101727.66;5066813;28;20511;-76
2023/05/08 10:58:56;;;;;;;8.02;4.22;;;;;;;19.14;100.00;101732.75;5061725;28;20047;-76
2023/05/08 11:01:23;;;;;;;9.90;4.65;;;;;;;19.05;100.00;101731.84;5051566;28;20787;-76
2023/05/08 11:03:51;;;;;;;10.80;4.45;;;;;;;19.06;100.00;101730.59;5062354;28;20093;-74
2023/05/08 11:06:45;;;;;;;9.15;4.30;;;;;;;19.04;100.00;101722.59;5060961;28;20128;-74
2023/05/08 11:09:25;;;;;;;9.65;3.88;;;;;;;18.84;100.00;101726.91;5061165;28;20055;-76
2023/05/08 11:12:23;;;;;;;9.13;4.65;;;;;;;18.79;100.00;101725.44;5058128;28;20133;-77
2023/05/08 11:14:58;;;;;;;6.60;2.90;;;;;;;18.68;100.00;101722.13;5056574;28;20418;-77
2023/05/08 11:17:25;;;;;;;7.30;4.05;;;;;;;18.57;100.00;101718.06;5054584;28;20060;-76
2023/05/08 11:20:00;;;;;;;6.03;2.85;;;;;;;18.62;100.00;101721.09;5065973;28;20052;-76